This is the latest recevied weather packets stored in our database for station/object SQ5BUJ-13. If no packets are shown the sender has not sent any weather packets the latest 10 day(s).
| Time | Temp. | Humidity | Pressure | Rain* | Wind** | Luminosity | Snow |
|---|---|---|---|---|---|---|---|
| 1777943396 | 13.33° C | 64% | 1011.3 hPa | - | - | - | - |
| 1777941661 | 13.33° C | 64% | 1011.3 hPa | - | - | - | - |
| 1777939956 | 15.56° C | 58% | 1011.4 hPa | - | - | - | - |
| 1777936606 | 15.56° C | 58% | 1011.4 hPa | - | - | - | - |
| 1777935116 | 18.89° C | 45% | 1011.5 hPa | - | - | - | - |
| 1777933556 | 18.89° C | 45% | 1011.5 hPa | - | - | - | - |
| 1777932010 | 19.44° C | 41% | 1011.5 hPa | - | - | - | - |
| 1777930290 | 19.44° C | 41% | 1011.5 hPa | - | - | - | - |
| 1777928566 | 19.44° C | 40% | 1011.1 hPa | - | - | - | - |
| 1777926946 | 19.44° C | 40% | 1011.1 hPa | - | - | - | - |
| 1777925341 | 19.44° C | 40% | 1011 hPa | - | - | - | - |
| 1777923866 | 19.44° C | 40% | 1011 hPa | - | - | - | - |
| 1777922350 | 19.44° C | 40% | 1011 hPa | - | - | - | - |
| 1777920770 | 23.33° C | 30% | 1010.6 hPa | - | - | - | - |
| 1777919050 | 23.33° C | 30% | 1010.6 hPa | - | - | - | - |
| 1777917456 | 26.11° C | 26% | 1010.3 hPa | - | - | - | - |
| 1777915861 | 26.11° C | 26% | 1010.3 hPa | - | - | - | - |
| 1777914130 | 26.67° C | 24% | 1010.4 hPa | - | - | - | - |
| 1777912381 | 26.67° C | 24% | 1010.4 hPa | - | - | - | - |
| 1777910756 | 27.22° C | 23% | 1010.6 hPa | - | - | - | - |
| 1777909226 | 27.22° C | 23% | 1010.6 hPa | - | - | - | - |
| 1777907616 | 27.22° C | 24% | 1011 hPa | - | - | - | - |
| 1777904376 | 27.22° C | 24% | 1011 hPa | - | - | - | - |
| 1777902770 | 26.67° C | 23% | 1011.6 hPa | - | - | - | - |
| 1777901246 | 26.67° C | 23% | 1011.6 hPa | - | - | - | - |
* Rain since midnight (hover to see other rain measurements)
** Current wind speed in m/s (hover to see current wind gust speed)